createdAt,value
2023-03-24T00:02:37.252Z,3.4
2023-03-24T00:05:39.162Z,3.6
2023-03-24T00:08:41.120Z,3.3
2023-03-24T00:11:43.101Z,3.1
2023-03-24T00:14:45.040Z,3.4
2023-03-24T00:17:47.058Z,3
2023-03-24T00:20:48.963Z,2.8
2023-03-24T00:23:50.937Z,3.1
2023-03-24T00:26:52.952Z,3.5
2023-03-24T00:29:54.896Z,2.8
2023-03-24T00:32:56.872Z,3.2
2023-03-24T00:35:58.859Z,2.8
2023-03-24T00:39:00.803Z,2.8
2023-03-24T00:42:02.748Z,2.4
2023-03-24T00:45:04.710Z,3
2023-03-24T00:48:06.771Z,2.6
2023-03-24T00:51:08.643Z,2.9
2023-03-24T00:54:10.615Z,3.4
2023-03-24T00:57:12.634Z,2.6
2023-03-24T01:00:14.574Z,2.6
2023-03-24T01:03:16.546Z,2.5
2023-03-24T01:06:18.483Z,2.5
2023-03-24T01:09:20.463Z,2.8
2023-03-24T01:12:22.481Z,2.5
2023-03-24T01:15:24.382Z,2.4
2023-03-24T01:18:26.357Z,2.8
2023-03-24T01:21:28.320Z,2.7
2023-03-24T01:24:30.333Z,2.5
2023-03-24T01:27:32.312Z,2.9
2023-03-24T01:30:34.249Z,2.8
2023-03-24T01:33:36.261Z,3
2023-03-24T01:36:38.228Z,2.4
2023-03-24T01:39:40.187Z,2.5
2023-03-24T01:42:42.159Z,2.3
2023-03-24T01:45:44.158Z,2.5
2023-03-24T01:48:46.198Z,2.2
2023-03-24T01:51:48.165Z,2.4
2023-03-24T01:54:50.163Z,2.1
2023-03-24T01:57:52.133Z,2.2
2023-03-24T02:00:54.083Z,2.4
2023-03-24T02:03:56.042Z,2.5
2023-03-24T02:06:57.980Z,2.4
2023-03-24T02:10:00.003Z,2
2023-03-24T02:13:01.930Z,2.6
2023-03-24T02:16:03.913Z,2.3
2023-03-24T02:19:05.920Z,2.4
2023-03-24T02:22:07.814Z,2.4
2023-03-24T02:25:09.787Z,2.4
2023-03-24T02:28:11.760Z,2.3
2023-03-24T02:31:13.736Z,2.4
2023-03-24T02:34:15.679Z,2.4
2023-03-24T02:37:17.638Z,2.4
2023-03-24T02:40:19.605Z,2.3
2023-03-24T02:43:21.562Z,2.8
2023-03-24T02:46:23.684Z,2.7
2023-03-24T02:49:25.611Z,2.6
2023-03-24T02:52:27.573Z,2.9
2023-03-24T02:55:29.549Z,2.9
2023-03-24T02:58:31.579Z,3
2023-03-24T03:01:33.562Z,2.6
2023-03-24T03:04:35.572Z,2.4
2023-03-24T03:07:37.482Z,2.6
2023-03-24T03:10:39.418Z,2.8
2023-03-24T03:13:41.374Z,3.2
2023-03-24T03:16:43.491Z,2.7
2023-03-24T03:19:45.473Z,2.9
2023-03-24T03:22:47.432Z,2.9
2023-03-24T03:25:49.394Z,3.2
2023-03-24T03:28:51.355Z,2.7
2023-03-24T03:31:53.331Z,2.8
2023-03-24T03:34:55.346Z,2.8
2023-03-24T03:37:57.367Z,3.7
2023-03-24T03:40:59.295Z,3.6
2023-03-24T03:44:01.273Z,4.2
2023-03-24T03:47:03.242Z,3.6
2023-03-24T03:50:05.220Z,3.6
2023-03-24T03:53:07.180Z,4
2023-03-24T03:56:09.166Z,4.6
2023-03-24T03:59:11.129Z,4.1
2023-03-24T04:02:13.088Z,4.2
2023-03-24T04:05:15.024Z,3.7
2023-03-24T04:08:16.982Z,3.9
2023-03-24T04:11:18.956Z,3.6
2023-03-24T04:14:20.905Z,3.7
2023-03-24T04:17:22.871Z,3.7
2023-03-24T04:20:24.831Z,3.3
2023-03-24T04:23:26.820Z,3.6
2023-03-24T04:26:28.785Z,3.7
2023-03-24T04:29:30.722Z,4.3
2023-03-24T04:32:32.811Z,4.1
2023-03-24T04:35:34.781Z,4.2
2023-03-24T04:38:36.731Z,3.7
2023-03-24T04:41:38.695Z,4.2
2023-03-24T04:44:40.638Z,4.1
2023-03-24T04:47:42.678Z,4.1
2023-03-24T04:50:44.625Z,4.1
2023-03-24T04:53:46.574Z,4.3
2023-03-24T04:56:48.576Z,4.1
2023-03-24T04:59:50.509Z,3.9
2023-03-24T05:02:52.486Z,4.2
2023-03-24T05:05:54.420Z,4.1
2023-03-24T05:08:56.380Z,4.8
2023-03-24T05:12:00.399Z,4.6
2023-03-24T05:15:00.325Z,4.6
2023-03-24T05:18:02.334Z,4.4
2023-03-24T05:21:04.261Z,5.4
2023-03-24T05:24:06.295Z,4.3
2023-03-24T05:27:08.282Z,4.9
2023-03-24T05:30:10.316Z,5.1
2023-03-24T05:33:12.227Z,4.6
2023-03-24T05:36:14.190Z,5.6
2023-03-24T05:39:16.140Z,5.8
2023-03-24T05:42:18.081Z,5.4
2023-03-24T05:45:20.047Z,5.8
2023-03-24T05:48:21.988Z,5.6
2023-03-24T05:51:23.951Z,5.2
2023-03-24T05:54:25.921Z,5.7
2023-03-24T05:57:27.903Z,4.8
2023-03-24T06:00:29.877Z,5.3
2023-03-24T06:03:32.026Z,4.9
2023-03-24T06:06:33.895Z,4.7
2023-03-24T06:09:37.153Z,4.9
2023-03-24T06:12:37.815Z,4.5
2023-03-24T06:15:39.904Z,4.4
2023-03-24T06:18:41.741Z,4.2
2023-03-24T06:21:43.709Z,4.2
2023-03-24T06:24:45.640Z,3.8
2023-03-24T06:27:47.652Z,4
2023-03-24T06:30:49.655Z,3.4
2023-03-24T06:33:51.519Z,3
2023-03-24T06:36:53.486Z,2.7
2023-03-24T06:39:55.444Z,2.6
2023-03-24T06:42:57.585Z,2.2
2023-03-24T06:45:59.623Z,2.3
2023-03-24T06:49:01.480Z,2.1
2023-03-24T06:52:03.431Z,2.1
2023-03-24T06:55:05.386Z,2.2
2023-03-24T06:58:07.367Z,2
2023-03-24T07:01:09.317Z,2.2
2023-03-24T07:04:11.304Z,2.1
2023-03-24T07:10:15.289Z,2.5
2023-03-24T07:13:17.253Z,2.5
2023-03-24T07:16:19.266Z,2.7
2023-03-24T07:19:21.192Z,2.3
2023-03-24T07:22:23.161Z,3.5
2023-03-24T07:25:25.155Z,2.8
2023-03-24T07:28:27.120Z,3.1
2023-03-24T07:31:29.091Z,2.9
2023-03-24T07:34:31.015Z,3.1
2023-03-24T07:37:32.968Z,2.9
2023-03-24T07:40:34.979Z,3.3
2023-03-24T07:43:36.909Z,3.4
2023-03-24T07:46:38.870Z,3.4
2023-03-24T07:49:40.839Z,3
2023-03-24T07:52:42.799Z,3.1
2023-03-24T07:55:44.761Z,2.9
2023-03-24T07:58:46.745Z,3.2
2023-03-24T08:01:49.334Z,3.6
2023-03-24T08:04:50.662Z,3.9
2023-03-24T08:07:52.617Z,3.6
2023-03-24T08:10:54.581Z,3.7
2023-03-24T08:13:56.546Z,3.8
2023-03-24T08:16:58.550Z,3.7
2023-03-24T08:20:02.118Z,3.6
2023-03-24T08:23:02.492Z,3.8
2023-03-24T08:26:04.438Z,3.7
2023-03-24T08:29:06.488Z,2.9
2023-03-24T08:32:08.407Z,2.9
2023-03-24T08:35:10.366Z,2.9
2023-03-24T08:38:12.336Z,2.9
2023-03-24T08:41:14.308Z,2.7
2023-03-24T08:44:16.272Z,2.3
2023-03-24T08:47:18.252Z,2.4
2023-03-24T08:50:20.203Z,2.8
2023-03-24T08:53:22.176Z,2.7
2023-03-24T08:56:24.137Z,2.8
2023-03-24T08:59:26.087Z,3.1
2023-03-24T09:02:28.111Z,3.3
2023-03-24T09:05:43.831Z,2.7
2023-03-24T09:08:31.971Z,2.5
2023-03-24T09:11:38.570Z,2.3
2023-03-24T09:14:38.739Z,2.2
2023-03-24T09:17:40.780Z,2
2023-03-24T09:20:42.664Z,1.8
2023-03-24T09:23:44.798Z,1.5
2023-03-24T09:26:46.798Z,1.5
2023-03-24T09:29:48.788Z,1.1
2023-03-24T09:32:50.787Z,1
2023-03-24T09:35:52.884Z,1.2
2023-03-24T09:38:54.900Z,1
2023-03-24T09:41:56.925Z,0.9
2023-03-24T09:44:58.947Z,1
2023-03-24T09:48:01.010Z,0.6
2023-03-24T09:51:03.029Z,0.7
2023-03-24T09:54:05.030Z,0.7
2023-03-24T09:57:07.162Z,0.9
2023-03-24T10:00:09.059Z,0.8
2023-03-24T10:03:11.263Z,0.7
2023-03-24T10:06:15.473Z,0.9
2023-03-24T10:09:15.387Z,0.8
2023-03-24T10:12:17.538Z,0.9
2023-03-24T10:15:30.808Z,1.1
2023-03-24T10:18:21.706Z,1.2
2023-03-24T10:21:23.757Z,1.2
2023-03-24T10:24:25.767Z,1.3
2023-03-24T10:27:27.727Z,1.3
2023-03-24T10:30:29.701Z,1
2023-03-24T10:33:31.829Z,1.1
2023-03-24T10:36:33.864Z,1.3
2023-03-24T10:42:37.855Z,1.1
2023-03-24T10:45:39.846Z,1
2023-03-24T10:48:41.787Z,0.9
2023-03-24T10:51:43.921Z,1
2023-03-24T10:54:45.957Z,1
2023-03-24T10:57:48.146Z,1.4
2023-03-24T11:00:50.186Z,1.2
2023-03-24T11:03:52.100Z,1.3
2023-03-24T11:06:54.072Z,1.1
2023-03-24T11:09:56.053Z,1.3
2023-03-24T11:12:58.034Z,1.2
2023-03-24T11:15:59.990Z,1.2
2023-03-24T11:19:02.015Z,0.9
2023-03-24T11:22:03.951Z,1
2023-03-24T11:25:05.925Z,0.8
2023-03-24T11:28:07.931Z,1.2
2023-03-24T11:31:09.902Z,0.9
2023-03-24T11:34:12.000Z,1
2023-03-24T11:37:16.990Z,1.2
2023-03-24T11:40:19.276Z,1
2023-03-24T11:43:20.991Z,1
2023-03-24T11:46:22.998Z,1
2023-03-24T11:49:24.961Z,1
2023-03-24T11:52:26.984Z,1
2023-03-24T11:55:29.039Z,1
2023-03-24T11:58:30.986Z,0.7
2023-03-24T12:01:32.954Z,1.1
2023-03-24T12:04:34.980Z,1
2023-03-24T12:07:37.039Z,0.7
2023-03-24T12:10:38.976Z,1
2023-03-24T12:13:40.942Z,0.8
2023-03-24T12:16:42.960Z,0.8
2023-03-24T12:19:56.309Z,1
2023-03-24T12:22:45.842Z,0.9
2023-03-24T12:25:47.997Z,0.9
2023-03-24T12:28:49.763Z,1
2023-03-24T12:31:51.834Z,0.9
2023-03-24T12:34:53.805Z,1
2023-03-24T12:37:55.766Z,0.8
2023-03-24T12:40:57.832Z,0.7
2023-03-24T12:43:59.821Z,1
2023-03-24T12:47:01.808Z,0.8
2023-03-24T12:50:03.822Z,1
2023-03-24T12:53:07.998Z,0.9
2023-03-24T12:56:07.769Z,1.1
2023-03-24T12:59:09.753Z,1.2
2023-03-24T13:02:11.780Z,0.8
2023-03-24T13:05:15.040Z,1
2023-03-24T13:08:15.784Z,1.3
2023-03-24T13:11:30.296Z,0.8
2023-03-24T13:14:19.836Z,0.9
2023-03-24T13:17:21.819Z,1
2023-03-24T13:20:23.843Z,1.4
2023-03-24T13:23:25.791Z,1
2023-03-24T13:26:27.754Z,1.3
2023-03-24T13:29:35.680Z,1.1
2023-03-24T13:32:31.829Z,0.9
2023-03-24T13:35:33.838Z,0.9
2023-03-24T13:38:35.764Z,1
2023-03-24T13:41:37.737Z,0.9
2023-03-24T13:44:39.917Z,1
2023-03-24T13:47:41.700Z,0.9
2023-03-24T13:50:43.801Z,0.9
2023-03-24T13:53:45.761Z,1
2023-03-24T13:56:47.775Z,0.9
2023-03-24T13:59:49.693Z,0.7
2023-03-24T14:02:51.744Z,1
2023-03-24T14:05:54.377Z,1
2023-03-24T14:08:56.441Z,0.8
2023-03-24T14:11:58.496Z,1.1
2023-03-24T14:15:00.562Z,0.7
2023-03-24T14:18:02.540Z,1
2023-03-24T14:21:04.526Z,0.7
2023-03-24T14:24:06.765Z,0.9
2023-03-24T14:27:08.792Z,0.8
2023-03-24T14:30:11.095Z,0.9
2023-03-24T14:33:12.872Z,0.8
2023-03-24T14:36:15.017Z,1
2023-03-24T14:39:17.049Z,0.7
2023-03-24T14:42:19.127Z,0.6
2023-03-24T14:45:21.101Z,0.8
2023-03-24T14:48:23.029Z,1.1
2023-03-24T14:51:24.983Z,1.2
2023-03-24T14:54:26.969Z,0.8
2023-03-24T14:57:28.952Z,1
2023-03-24T15:00:30.929Z,1
2023-03-24T15:03:32.935Z,0.9
2023-03-24T15:06:34.931Z,1
2023-03-24T15:09:39.262Z,0.8
2023-03-24T15:12:38.902Z,1.2
2023-03-24T15:15:41.029Z,1.2
2023-03-24T15:18:50.105Z,1.3
2023-03-24T15:21:44.995Z,0.9
2023-03-24T15:24:46.916Z,1.1
2023-03-24T15:27:48.862Z,0.9
2023-03-24T15:30:51.096Z,1.1
2023-03-24T15:33:52.800Z,1
2023-03-24T15:36:54.861Z,0.8
2023-03-24T15:40:02.102Z,0.8
2023-03-24T15:42:58.772Z,0.7
2023-03-24T15:46:09.377Z,0.8
2023-03-24T15:49:02.708Z,0.7
2023-03-24T15:52:04.661Z,0.8
2023-03-24T15:55:06.639Z,0.7
2023-03-24T15:58:08.610Z,1.1
2023-03-24T16:01:10.659Z,0.9
2023-03-24T16:04:12.616Z,1
2023-03-24T16:07:14.759Z,0.8
2023-03-24T16:10:16.727Z,0.8
2023-03-24T16:13:18.739Z,0.6
2023-03-24T16:16:20.692Z,0.9
2023-03-24T16:19:22.634Z,1
2023-03-24T16:22:24.629Z,1.2
2023-03-24T16:25:26.585Z,1
2023-03-24T16:28:28.537Z,0.8
2023-03-24T16:31:30.512Z,0.7
2023-03-24T16:34:32.454Z,0.9
2023-03-24T16:37:34.433Z,0.7
2023-03-24T16:40:36.376Z,0.9
2023-03-24T16:43:38.336Z,0.9
2023-03-24T16:46:40.339Z,0.8
2023-03-24T16:49:42.300Z,1
2023-03-24T16:52:44.270Z,0.9
2023-03-24T16:55:46.231Z,0.7
2023-03-24T16:58:49.816Z,0.9
2023-03-24T17:01:50.202Z,1
2023-03-24T17:04:52.279Z,0.8
2023-03-24T17:07:54.299Z,1.3
2023-03-24T17:10:56.429Z,0.9
2023-03-24T17:13:58.463Z,0.8
2023-03-24T17:17:00.538Z,0.8
2023-03-24T17:20:04.720Z,1.1
2023-03-24T17:23:04.596Z,0.7
2023-03-24T17:26:06.608Z,1.1
2023-03-24T17:29:08.690Z,0.8
2023-03-24T17:32:10.603Z,1.4
2023-03-24T17:35:12.625Z,0.9
2023-03-24T17:38:14.610Z,0.9
2023-03-24T17:41:16.618Z,1
2023-03-24T17:44:18.560Z,0.9
2023-03-24T17:47:20.531Z,1.2
2023-03-24T17:50:22.553Z,1.2
2023-03-24T17:53:24.492Z,1.2
2023-03-24T17:56:26.480Z,1
2023-03-24T17:59:28.430Z,1.1
2023-03-24T18:02:30.433Z,0.7
2023-03-24T18:05:32.376Z,0.9
2023-03-24T18:08:34.346Z,1
2023-03-24T18:11:36.304Z,1.1
2023-03-24T18:14:38.276Z,1.3
2023-03-24T18:17:40.246Z,1.1
2023-03-24T18:20:42.168Z,1.1
2023-03-24T18:23:44.154Z,1
2023-03-24T18:26:46.398Z,0.8
2023-03-24T18:29:48.092Z,1
2023-03-24T18:32:50.139Z,1.3
2023-03-24T18:35:52.021Z,1.2
2023-03-24T18:38:53.970Z,1.2
2023-03-24T18:41:56.207Z,1.2
2023-03-24T18:44:57.868Z,1.6
2023-03-24T18:47:59.937Z,0.9
2023-03-24T18:51:01.829Z,1.2
2023-03-24T18:54:03.776Z,1.4
2023-03-24T18:57:05.790Z,1.1
2023-03-24T19:00:07.721Z,1.1
2023-03-24T19:03:09.817Z,1.1
2023-03-24T19:06:11.636Z,1.2
2023-03-24T19:09:13.629Z,0.9
2023-03-24T19:12:15.568Z,1
2023-03-24T19:15:17.539Z,1.2
2023-03-24T19:18:19.590Z,1
2023-03-24T19:21:21.515Z,1.4
2023-03-24T19:24:23.483Z,1.2
2023-03-24T19:27:25.427Z,1
2023-03-24T19:30:27.418Z,1.3
2023-03-24T19:33:29.365Z,1.1
2023-03-24T19:36:31.333Z,1
2023-03-24T19:39:33.304Z,1.3
2023-03-24T19:42:35.255Z,1
2023-03-24T19:45:37.205Z,2
2023-03-24T19:48:39.206Z,1.2
2023-03-24T19:51:41.147Z,0.9
2023-03-24T19:54:43.134Z,1.2
2023-03-24T19:57:45.069Z,1.4
2023-03-24T20:00:47.106Z,1.3
2023-03-24T20:03:49.081Z,0.8
2023-03-24T20:06:51.020Z,0.9
2023-03-24T20:09:52.983Z,1
2023-03-24T20:12:54.985Z,0.9
2023-03-24T20:15:56.960Z,0.8
2023-03-24T20:18:58.924Z,1.5
2023-03-24T20:22:00.861Z,0.9
2023-03-24T20:25:02.882Z,0.8
2023-03-24T20:28:04.829Z,0.8
2023-03-24T20:31:06.813Z,1.2
2023-03-24T20:34:08.763Z,1
2023-03-24T20:37:10.753Z,1
2023-03-24T20:40:12.737Z,1.2
2023-03-24T20:43:14.734Z,1
2023-03-24T20:46:16.737Z,0.8
2023-03-24T20:49:18.723Z,1.1
2023-03-24T20:52:20.704Z,0.9
2023-03-24T20:55:22.643Z,0.8
2023-03-24T20:58:24.610Z,1.2
2023-03-24T21:01:26.614Z,1.1
2023-03-24T21:04:28.526Z,1
2023-03-24T21:07:30.494Z,0.7
2023-03-24T21:10:32.429Z,0.9
2023-03-24T21:13:37.794Z,0.6
2023-03-24T21:16:36.377Z,1.1
2023-03-24T21:19:38.334Z,0.7
2023-03-24T21:22:40.301Z,0.9
2023-03-24T21:25:42.268Z,0.7
2023-03-24T21:28:44.281Z,0.7
2023-03-24T21:31:46.220Z,0.6
2023-03-24T21:34:48.156Z,0.5
2023-03-24T21:37:50.155Z,0.7
2023-03-24T21:40:52.309Z,1.1
2023-03-24T21:43:54.327Z,0.6
2023-03-24T21:46:56.068Z,0.5
2023-03-24T21:49:58.027Z,0.7
2023-03-24T21:53:00.015Z,0.9
2023-03-24T21:56:01.964Z,0.8
2023-03-24T21:59:03.962Z,0.8
2023-03-24T22:02:05.962Z,0.4
2023-03-24T22:05:07.888Z,0.6
2023-03-24T22:08:09.898Z,0.5
2023-03-24T22:11:11.855Z,0.7
2023-03-24T22:14:13.814Z,0.6
2023-03-24T22:17:15.786Z,0.6
2023-03-24T22:20:17.735Z,0.5
2023-03-24T22:23:19.721Z,0.5
2023-03-24T22:26:21.653Z,0.6
2023-03-24T22:29:23.635Z,0.4
2023-03-24T22:32:25.649Z,0.6
2023-03-24T22:35:27.578Z,0.6
2023-03-24T22:38:29.542Z,0.5
2023-03-24T22:41:31.534Z,0.5
2023-03-24T22:44:33.471Z,0.4
2023-03-24T22:47:35.458Z,0.4
2023-03-24T22:50:37.387Z,0.4
2023-03-24T22:53:39.374Z,0.6
2023-03-24T22:56:41.382Z,0.4
2023-03-24T22:59:43.318Z,0.4
2023-03-24T23:02:45.296Z,0.4
2023-03-24T23:05:47.350Z,0.5
2023-03-24T23:08:49.506Z,0.5
2023-03-24T23:11:51.195Z,0.6
2023-03-24T23:14:53.143Z,0.5
2023-03-24T23:17:55.164Z,0.3
2023-03-24T23:20:57.066Z,0.3
2023-03-24T23:23:59.036Z,0.4
2023-03-24T23:27:00.992Z,0.4
2023-03-24T23:30:02.984Z,0.4
2023-03-24T23:33:04.994Z,0.4
2023-03-24T23:36:06.917Z,0.3
2023-03-24T23:39:08.876Z,0.4
2023-03-24T23:42:10.825Z,0.4
2023-03-24T23:45:12.955Z,0.4
2023-03-24T23:48:14.749Z,0.3
2023-03-24T23:51:16.717Z,0.4
2023-03-24T23:54:18.728Z,0.3
2023-03-24T23:57:20.653Z,0.4
